Weather History for Knox, IN

Change the Weather History Date:

Saturday, October 1, 2011

  Actual Average (KVPZ) Record (KVPZ)
Temperature  
Mean Temperature 46 °F 57 °F  
Max Temperature 53 °F 69 °F 84 °F (2002)
Min Temperature 35 °F 46 °F 32 °F (2003)
Degree Days  
Heating Degree Days 20 9  
Month to date heating degree days 9  
Since 1 July heating degree days 139  
Cooling Degree Days 0 1  
Month to date cooling degree days 1  
Year to date cooling degree days 703  
Moisture  
Dew Point 37 °F    
Average Humidity 74    
Maximum Humidity 97    
Minimum Humidity 49    
Precipitation  
Precipitation 0.00 in 0.10 in 0.48 in (2008)
Month to date precipitation 0.10  
Year to date precipitation 28.85  
Sea Level Pressure  
Sea Level Pressure 30.19 in    
Wind  
Wind Speed 10 mph (North)    
Max Wind Speed 20 mph    
Max Gust Speed 25 mph    
Visibility 10 miles    
Events      
T = Trace of Precipitation, MM = Missing Value Source: NWS Daily Summary

Daily Weather History Graph

Daily Weather History Graph

Search for Another Location

Airport:

Trip Planner

Search our weather history database for the weather conditions in past years. The results will help you decide how hot, cold, wet, or windy it might be!

Date:

Astronomy

Oct. 01, 2011 Rise Set
Actual Time 6:43 AM CDT 6:28 PM CDT
Civil Twilight 6:15 AM CDT 6:56 PM CDT
Nautical Twilight 5:43 AM CDT 7:28 PM CDT
Astronomical Twilight 5:11 AM CDT 8:00 PM CDT
Moon 11:52 AM CDT (10/1) 9:22 PM CDT (10/1)
Length of Visible Light 12h 40m
Length of Day
11h 45m
Waxing Crescent, 24% of the Moon is Illuminated
Oct 1
Waxing Crescent
Oct 3
First Quarter
Oct 11
Full
Oct 19
Last Quarter
Oct 26
New

Hourly Weather History & Observations

Time (CDT) Temp. Windchill Dew Point Humidity Pressure Visibility Wind Dir Wind Speed Gust Speed Precip Events Conditions
12:15 AM 43.7 °F 38.6 °F 40.8 °F 90% 30.10 in 10.0 mi NNE 9.2 mph - N/A   Overcast
12:35 AM 43.7 °F 38.6 °F 39.9 °F 87% 30.10 in 10.0 mi North 9.2 mph - N/A   Mostly Cloudy
12:55 AM 42.8 °F 38.6 °F 38.8 °F 86% 30.10 in 10.0 mi North 6.9 mph - N/A   Scattered Clouds
1:15 AM 41.5 °F 37.8 °F 38.5 °F 89% 30.11 in 10.0 mi North 5.8 mph - N/A   Mostly Cloudy
1:35 AM 41.9 °F 38.2 °F 38.7 °F 88% 30.11 in 10.0 mi North 5.8 mph - N/A   Overcast
1:55 AM 41.2 °F 38.2 °F 38.1 °F 89% 30.11 in 10.0 mi North 4.6 mph - N/A   Mostly Cloudy
2:15 AM 41.4 °F 38.4 °F 38.5 °F 89% 30.11 in 10.0 mi North 4.6 mph - N/A   Overcast
2:35 AM 41.7 °F 38.0 °F 38.1 °F 87% 30.11 in 10.0 mi NNE 5.8 mph - N/A   Mostly Cloudy
2:55 AM 41.2 °F 38.2 °F 37.8 °F 88% 30.11 in 10.0 mi North 4.6 mph - N/A   Mostly Cloudy
3:15 AM 41.9 °F 36.9 °F 38.3 °F 87% 30.12 in 10.0 mi North 8.1 mph - N/A   Overcast
3:35 AM 42.1 °F 37.1 °F 38.1 °F 86% 30.12 in 10.0 mi North 8.1 mph - N/A   Mostly Cloudy
3:55 AM 41.0 °F 36.4 °F 37.2 °F 86% 30.13 in 10.0 mi North 6.9 mph - N/A   Scattered Clouds
4:15 AM 40.5 °F 35.1 °F 36.7 °F 86% 30.13 in 10.0 mi North 8.1 mph - N/A   Clear
4:35 AM 40.5 °F 34.1 °F 36.1 °F 85% 30.14 in 10.0 mi North 10.4 mph - N/A   Clear
4:55 AM 40.8 °F 35.6 °F 35.8 °F 82% 30.15 in 10.0 mi North 8.1 mph - N/A   Clear
5:15 AM 40.8 °F 35.6 °F 35.8 °F 82% 30.15 in 10.0 mi North 8.1 mph - N/A   Clear
5:35 AM 40.5 °F 34.6 °F 35.6 °F 83% 30.16 in 10.0 mi North 9.2 mph - N/A   Clear
5:55 AM 40.1 °F 34.7 °F 35.8 °F 85% 30.16 in 10.0 mi North 8.1 mph - N/A   Clear
6:15 AM 39.9 °F 34.5 °F 36.0 °F 86% 30.17 in 10.0 mi North 8.1 mph - N/A   Clear
6:35 AM 39.6 °F 34.7 °F 35.8 °F 86% 30.17 in 10.0 mi North 6.9 mph - N/A   Clear
6:55 AM 39.7 °F 34.3 °F 35.8 °F 86% 30.18 in 10.0 mi North 8.1 mph - N/A   Clear
7:15 AM 39.7 °F 34.9 °F 35.8 °F 86% 30.19 in 10.0 mi North 6.9 mph - N/A   Clear
7:55 AM 41.5 °F 35.0 °F 36.3 °F 82% 30.21 in 10.0 mi NNE 11.5 mph 19.6 mph N/A   Clear
8:15 AM 42.6 °F 36.3 °F 36.0 °F 77% 30.21 in 10.0 mi NNE 11.5 mph 17.3 mph N/A   Clear
8:35 AM 43.7 °F 37.3 °F 36.0 °F 74% 30.22 in 10.0 mi NNE 12.7 mph 17.3 mph N/A   Clear
8:55 AM 44.4 °F 38.6 °F 36.1 °F 73% 30.23 in 10.0 mi North 11.5 mph - N/A   Clear
9:15 AM 45.5 °F 39.9 °F 36.1 °F 70% 30.23 in 10.0 mi North 11.5 mph - N/A   Clear
9:35 AM 46.2 °F 39.8 °F 36.0 °F 67% 30.23 in 10.0 mi North 15.0 mph - N/A   Scattered Clouds
9:55 AM 46.9 °F - 35.8 °F 65% 30.24 in 10.0 mi North 19.6 mph - N/A   Scattered Clouds
10:15 AM 47.3 °F - 35.4 °F 63% 30.25 in 10.0 mi North 11.5 mph 20.7 mph N/A   Clear
10:35 AM 48.2 °F - 35.8 °F 62% 30.26 in 10.0 mi North 11.5 mph 20.7 mph N/A   Clear
10:55 AM 49.3 °F - 36.1 °F 61% 30.26 in 10.0 mi North 15.0 mph 21.9 mph N/A   Clear
11:15 AM 49.8 °F - 36.1 °F 59% 30.24 in 10.0 mi NNE 11.5 mph 20.7 mph N/A   Clear
11:35 AM 50.5 °F - 36.9 °F 59% 30.24 in 10.0 mi NNW 16.1 mph 20.7 mph N/A   Clear
11:55 AM 50.7 °F - 35.6 °F 56% 30.24 in 10.0 mi NNW 13.8 mph 19.6 mph N/A   Clear
12:35 PM 52.0 °F - 34.9 °F 52% 30.23 in 10.0 mi NNW 15.0 mph 20.7 mph N/A   Clear
12:55 PM 52.5 °F - 34.9 °F 51% 30.23 in 10.0 mi North 16.1 mph 20.7 mph N/A   Clear
1:15 PM 52.7 °F - 34.2 °F 49% 30.23 in 10.0 mi North 16.1 mph 24.2 mph N/A   Clear
1:35 PM 52.9 °F - 35.2 °F 51% 30.23 in 10.0 mi North 17.3 mph 23.0 mph N/A   Clear
1:55 PM 52.9 °F - 35.4 °F 52% 30.22 in 10.0 mi North 19.6 mph 24.2 mph N/A   Clear
2:15 PM 52.9 °F - 35.8 °F 52% 30.22 in 10.0 mi NNW 19.6 mph 24.2 mph N/A   Clear
2:35 PM 52.9 °F - 36.7 °F 54% 30.22 in 10.0 mi North 16.1 mph 21.9 mph N/A   Clear
2:55 PM 53.2 °F - 37.2 °F 55% 30.22 in 10.0 mi North 16.1 mph 23.0 mph N/A   Clear
3:15 PM 53.2 °F - 36.9 °F 54% 30.22 in 10.0 mi NNW 16.1 mph 21.9 mph N/A   Clear
3:55 PM 52.3 °F - 37.2 °F 56% 30.22 in 10.0 mi North 18.4 mph 25.3 mph N/A   Clear
4:15 PM 52.0 °F - 37.4 °F 58% 30.22 in 10.0 mi North 16.1 mph 25.3 mph N/A   Clear
4:35 PM 51.8 °F - 37.4 °F 58% 30.23 in 10.0 mi North 16.1 mph 23.0 mph N/A   Clear
4:55 PM 51.3 °F - 37.6 °F 60% 30.22 in 10.0 mi NNW 16.1 mph 20.7 mph N/A   Clear
5:15 PM 50.9 °F - 37.6 °F 60% 30.22 in 10.0 mi North 13.8 mph 23.0 mph N/A   Clear
5:35 PM 50.0 °F - 37.8 °F 63% 30.23 in 10.0 mi North 15.0 mph 20.7 mph N/A   Clear
5:55 PM 49.3 °F - 37.9 °F 65% 30.22 in 10.0 mi North 12.7 mph 18.4 mph N/A   Clear
6:15 PM 48.2 °F - 37.9 °F 68% 30.22 in 10.0 mi North 10.4 mph - N/A   Clear
6:35 PM 46.9 °F - 38.1 °F 71% 30.23 in 10.0 mi North 11.5 mph - N/A   Clear
6:55 PM 46.0 °F 41.9 °F 38.3 °F 74% 30.22 in 10.0 mi North 8.1 mph - N/A   Clear
7:15 PM 44.2 °F 41.0 °F 39.2 °F 82% 30.22 in 10.0 mi North 5.8 mph - N/A   Clear
7:35 PM 42.1 °F 39.2 °F 38.8 °F 88% 30.23 in 10.0 mi North 4.6 mph - N/A   Clear
7:55 PM 40.5 °F 35.8 °F 38.1 °F 91% 30.23 in 10.0 mi NNW 6.9 mph - N/A   Clear
8:15 PM 39.4 °F 36.1 °F 37.6 °F 93% 30.23 in 10.0 mi North 4.6 mph - N/A   Clear
8:35 PM 39.2 °F - 37.9 °F 95% 30.23 in 10.0 mi Calm Calm - N/A   Clear
8:55 PM 39.2 °F - 38.1 °F 96% 30.23 in 10.0 mi Calm Calm - N/A   Clear
9:15 PM 38.8 °F - 37.9 °F 97% 30.23 in 10.0 mi Calm Calm - N/A   Clear
9:55 PM 35.4 °F - 34.7 °F 97% 30.23 in 10.0 mi Calm Calm - N/A   Clear
10:15 PM 35.6 °F - 35.1 °F 98% 30.23 in 10.0 mi Calm Calm - N/A   Clear
10:35 PM 35.4 °F - 34.7 °F 97% 30.23 in 10.0 mi Calm Calm - N/A   Clear
10:55 PM 35.2 °F - 34.5 °F 97% 30.23 in 3.0 mi Calm Calm - N/A   Clear
11:15 PM 34.5 °F - 33.8 °F 97% 30.23 in 10.0 mi Calm Calm - N/A   Clear
11:35 PM 34.2 °F - 33.4 °F 97% 30.23 in 0.8 mi Calm Calm - N/A   Unknown
11:55 PM 34.0 °F - 33.4 °F 98% 30.23 in 1.0 mi Calm Calm - N/A   Unknown